createdAt,value
2023-04-19T00:02:03.208Z,13.43
2023-04-19T00:04:30.624Z,13.02
2023-04-19T00:06:58.556Z,13.10
2023-04-19T00:09:25.693Z,13.27
2023-04-19T00:11:53.020Z,13.73
2023-04-19T00:14:19.932Z,13.65
2023-04-19T00:16:46.902Z,13.38
2023-04-19T00:19:16.733Z,13.43
2023-04-19T00:21:43.647Z,13.40
2023-04-19T00:24:10.452Z,13.25
2023-04-19T00:26:37.679Z,13.23
2023-04-19T00:29:04.620Z,14.00
2023-04-19T00:31:33.553Z,13.70
2023-04-19T00:34:00.539Z,13.63
2023-04-19T00:36:27.406Z,13.15
2023-04-19T00:38:54.205Z,13.88
2023-04-19T00:41:21.362Z,12.73
2023-04-19T00:43:48.263Z,13.32
2023-04-19T00:46:16.085Z,12.90
2023-04-19T00:48:43.284Z,12.93
2023-04-19T00:51:13.000Z,14.05
2023-04-19T00:53:41.215Z,13.07
2023-04-19T00:56:09.609Z,14.48
2023-04-19T00:58:38.635Z,14.52
2023-04-19T01:01:06.454Z,14.55
2023-04-19T01:03:35.036Z,15.50
2023-04-19T01:06:02.533Z,14.85
2023-04-19T01:08:29.478Z,15.18
2023-04-19T01:10:56.267Z,14.65
2023-04-19T01:13:23.228Z,14.77
2023-04-19T01:15:51.726Z,15.60
2023-04-19T01:18:24.563Z,15.15
2023-04-19T01:20:52.018Z,15.38
2023-04-19T01:23:19.145Z,15.73
2023-04-19T01:25:46.367Z,16.10
2023-04-19T01:28:13.536Z,15.90
2023-04-19T01:30:41.752Z,15.60
2023-04-19T01:33:08.704Z,14.45
2023-04-19T01:35:35.704Z,15.48
2023-04-19T01:38:02.850Z,15.65
2023-04-19T01:40:29.621Z,16.02
2023-04-19T01:42:57.843Z,15.52
2023-04-19T01:45:25.963Z,15.15
2023-04-19T01:47:52.844Z,15.55
2023-04-19T01:50:20.003Z,15.18
2023-04-19T01:52:47.040Z,14.73
2023-04-19T01:55:13.894Z,15.32
2023-04-19T01:57:40.782Z,15.63
2023-04-19T02:00:08.880Z,15.07
2023-04-19T02:02:42.012Z,15.55
2023-04-19T02:05:09.809Z,15.10
2023-04-19T02:07:36.640Z,15.00
2023-04-19T02:10:04.126Z,15.00
2023-04-19T02:12:31.487Z,15.05
2023-04-19T02:14:59.606Z,14.63
2023-04-19T02:17:34.825Z,14.63
2023-04-19T02:20:01.738Z,14.52
2023-04-19T02:22:28.502Z,15.10
2023-04-19T02:24:55.756Z,13.70
2023-04-19T02:27:29.470Z,13.80
2023-04-19T02:29:56.623Z,13.43
2023-04-19T02:32:24.615Z,14.30
2023-04-19T02:34:51.992Z,13.93
2023-04-19T02:37:19.592Z,13.18
2023-04-19T02:39:46.461Z,14.05
2023-04-19T02:42:13.372Z,14.85
2023-04-19T02:44:40.127Z,13.85
2023-04-19T02:47:08.130Z,13.65
2023-04-19T02:49:37.128Z,13.68
2023-04-19T02:52:04.749Z,13.45
2023-04-19T02:54:33.927Z,13.88
2023-04-19T02:57:01.260Z,14.35
2023-04-19T02:59:28.243Z,13.75
2023-04-19T03:02:01.545Z,15.05
2023-04-19T03:04:29.027Z,14.05
2023-04-19T03:06:56.458Z,14.20
2023-04-19T03:09:23.457Z,13.77
2023-04-19T03:11:50.451Z,14.32
2023-04-19T03:14:18.090Z,14.40
2023-04-19T03:16:45.324Z,15.02
2023-04-19T03:19:12.316Z,14.65
2023-04-19T03:21:46.979Z,14.25
2023-04-19T03:24:14.349Z,14.98
2023-04-19T03:26:47.286Z,14.88
2023-04-19T03:29:15.334Z,15.13
2023-04-19T03:31:50.721Z,14.98
2023-04-19T03:34:19.144Z,16.20
2023-04-19T03:36:48.716Z,16.67
2023-04-19T03:39:15.513Z,15.80
2023-04-19T03:41:45.977Z,15.88
2023-04-19T03:44:26.490Z,15.05
2023-04-19T03:46:53.971Z,15.57
2023-04-19T03:49:25.419Z,15.50
2023-04-19T03:52:02.934Z,16.90
2023-04-19T03:54:29.867Z,16.50
2023-04-19T03:56:57.173Z,14.73
2023-04-19T03:59:25.351Z,16.27
2023-04-19T04:01:53.028Z,15.43
2023-04-19T04:04:20.546Z,16.42
2023-04-19T04:06:47.575Z,16.63
2023-04-19T04:09:16.769Z,17.08
2023-04-19T04:11:44.291Z,16.92
2023-04-19T04:14:11.557Z,17.48
2023-04-19T04:16:39.289Z,16.95
2023-04-19T04:19:07.618Z,17.25
2023-04-19T04:21:37.905Z,16.85
2023-04-19T04:24:08.176Z,17.00
2023-04-19T04:26:51.508Z,17.45
2023-04-19T04:29:29.006Z,17.30
2023-04-19T04:31:58.645Z,17.80
2023-04-19T04:34:31.273Z,17.88
2023-04-19T04:37:06.972Z,17.15
2023-04-19T04:39:39.165Z,16.33
2023-04-19T04:42:10.224Z,18.33
2023-04-19T04:44:37.316Z,17.90
2023-04-19T04:47:04.892Z,18.02
2023-04-19T04:49:37.702Z,17.67
2023-04-19T04:52:04.768Z,17.55
2023-04-19T04:54:36.884Z,18.35
2023-04-19T04:57:05.314Z,18.50
2023-04-19T04:59:32.356Z,17.48
2023-04-19T05:01:59.670Z,18.13
2023-04-19T05:04:26.616Z,17.73
2023-04-19T05:06:53.654Z,18.27
2023-04-19T05:09:24.992Z,19.17
2023-04-19T05:11:52.283Z,18.67
2023-04-19T05:14:19.382Z,17.30
2023-04-19T05:16:46.300Z,18.80
2023-04-19T05:19:13.467Z,19.33
2023-04-19T05:21:46.615Z,18.45
2023-04-19T05:24:14.886Z,18.17
2023-04-19T05:26:42.308Z,17.33
2023-04-19T05:29:10.634Z,18.60
2023-04-19T05:31:49.752Z,16.50
2023-04-19T05:34:22.237Z,17.67
2023-04-19T05:36:49.904Z,17.13
2023-04-19T05:39:17.450Z,16.02
2023-04-19T05:41:44.397Z,16.38
2023-04-19T05:44:11.139Z,16.90
2023-04-19T05:46:38.242Z,16.33
2023-04-19T05:49:08.763Z,17.05
2023-04-19T05:52:00.628Z,15.90
2023-04-19T05:54:36.180Z,16.58
2023-04-19T05:57:04.431Z,16.40
2023-04-19T05:59:31.798Z,15.98
2023-04-19T06:01:59.347Z,15.00
2023-04-19T06:04:27.822Z,16.15
2023-04-19T06:06:55.345Z,15.75
2023-04-19T06:09:22.426Z,16.60
2023-04-19T06:11:51.603Z,14.88
2023-04-19T06:14:19.313Z,15.73
2023-04-19T06:16:47.469Z,15.05
2023-04-19T06:19:14.402Z,13.90
2023-04-19T06:21:41.286Z,14.95
2023-04-19T06:24:08.519Z,14.85
2023-04-19T06:26:35.314Z,15.07
2023-04-19T06:29:02.333Z,14.90
2023-04-19T06:31:29.384Z,15.15
2023-04-19T06:33:56.185Z,14.95
2023-04-19T06:36:22.976Z,14.82
2023-04-19T06:38:50.332Z,14.95
2023-04-19T06:41:17.775Z,15.35
2023-04-19T06:43:44.972Z,15.05
2023-04-19T06:46:14.429Z,15.50
2023-04-19T06:48:42.105Z,14.18
2023-04-19T06:51:09.485Z,15.98
2023-04-19T06:53:36.926Z,15.73
2023-04-19T06:56:05.278Z,16.58
2023-04-19T06:58:34.545Z,17.23
2023-04-19T07:01:03.935Z,17.83
2023-04-19T07:03:31.078Z,17.80
2023-04-19T07:05:57.910Z,16.70
2023-04-19T07:08:32.214Z,16.70
2023-04-19T07:11:05.933Z,17.70
2023-04-19T07:13:32.868Z,18.42
2023-04-19T07:15:59.787Z,17.25
2023-04-19T07:18:26.731Z,18.35
2023-04-19T07:20:53.789Z,18.55
2023-04-19T07:23:20.592Z,19.05
2023-04-19T07:25:47.339Z,18.73
2023-04-19T07:28:14.203Z,18.83
2023-04-19T07:30:41.591Z,17.83
2023-04-19T07:33:08.553Z,18.58
2023-04-19T07:35:35.931Z,17.33
2023-04-19T07:38:02.973Z,17.48
2023-04-19T07:40:29.935Z,17.83
2023-04-19T07:42:59.941Z,17.33
2023-04-19T07:45:26.933Z,16.70
2023-04-19T07:47:53.818Z,17.15
2023-04-19T07:50:23.115Z,17.38
2023-04-19T07:52:50.184Z,16.33
2023-04-19T07:55:17.124Z,17.77
2023-04-19T07:57:48.131Z,16.63
2023-04-19T08:00:16.155Z,17.02
2023-04-19T08:02:47.020Z,15.90
2023-04-19T08:05:19.268Z,16.15
2023-04-19T08:07:46.261Z,17.83
2023-04-19T08:10:13.308Z,16.13
2023-04-19T08:12:50.329Z,15.75
2023-04-19T08:16:05.195Z,17.25
2023-04-19T08:18:10.968Z,15.50
2023-04-19T08:20:37.876Z,15.35
2023-04-19T08:23:20.530Z,15.10
2023-04-19T08:25:51.421Z,15.70
2023-04-19T08:28:19.394Z,17.23
2023-04-19T08:30:46.382Z,16.90
2023-04-19T08:33:13.441Z,16.27
2023-04-19T08:35:41.688Z,16.90
2023-04-19T08:38:09.238Z,16.33
2023-04-19T08:40:45.672Z,15.48
2023-04-19T08:43:12.610Z,15.98
2023-04-19T08:45:40.142Z,15.75
2023-04-19T08:48:11.855Z,15.95
2023-04-19T08:50:56.020Z,15.00
2023-04-19T08:53:31.320Z,15.25
2023-04-19T08:56:12.736Z,15.20
2023-04-19T08:59:00.503Z,14.40
2023-04-19T09:01:34.617Z,14.20
2023-04-19T09:04:16.918Z,14.00
2023-04-19T09:06:54.322Z,13.55
2023-04-19T09:09:35.479Z,14.40
2023-04-19T09:12:18.267Z,13.25
2023-04-19T09:15:01.117Z,15.38
2023-04-19T09:17:28.784Z,14.20
2023-04-19T09:19:56.058Z,14.05
2023-04-19T09:22:23.189Z,13.65
2023-04-19T09:27:33.275Z,13.02
2023-04-19T09:30:02.105Z,12.32
2023-04-19T09:32:44.570Z,13.45
2023-04-19T09:35:11.459Z,13.30
2023-04-19T09:38:04.029Z,12.43
2023-04-19T09:40:28.493Z,11.90
2023-04-19T09:43:07.333Z,12.05
2023-04-19T09:45:47.317Z,12.32
2023-04-19T09:48:14.512Z,11.70
2023-04-19T09:51:02.414Z,12.57
2023-04-19T09:53:35.145Z,11.60
2023-04-19T09:56:03.974Z,11.93
2023-04-19T09:58:42.542Z,10.80
2023-04-19T10:01:16.560Z,10.68
2023-04-19T10:03:49.906Z,11.20
2023-04-19T10:08:50.442Z,11.07
2023-04-19T10:11:19.098Z,11.82
2023-04-19T10:13:48.128Z,11.00
2023-04-19T10:16:19.380Z,11.05
2023-04-19T10:18:47.845Z,10.43
2023-04-19T10:21:15.807Z,11.10
2023-04-19T10:23:42.677Z,10.32
2023-04-19T10:26:09.405Z,10.93
2023-04-19T10:28:37.241Z,10.63
2023-04-19T10:31:05.029Z,9.80
2023-04-19T10:33:36.703Z,10.68
2023-04-19T10:36:04.286Z,10.57
2023-04-19T10:38:46.365Z,10.00
2023-04-19T10:41:18.215Z,9.75
2023-04-19T10:43:58.236Z,9.80
2023-04-19T10:46:26.154Z,9.32
2023-04-19T10:49:01.483Z,8.60
2023-04-19T10:51:42.237Z,9.48
2023-04-19T10:54:28.653Z,10.35
2023-04-19T10:57:04.962Z,10.57
2023-04-19T10:59:33.989Z,10.43
2023-04-19T11:02:03.274Z,8.95
2023-04-19T11:04:30.648Z,9.85
2023-04-19T11:07:07.922Z,9.02
2023-04-19T11:09:38.590Z,10.43
2023-04-19T11:12:09.556Z,9.85
2023-04-19T11:14:40.277Z,9.30
2023-04-19T11:17:28.129Z,8.77
2023-04-19T11:19:57.166Z,8.93
2023-04-19T11:22:31.811Z,8.82
2023-04-19T11:25:10.844Z,8.20
2023-04-19T11:27:42.981Z,8.82
2023-04-19T11:30:15.345Z,9.80
2023-04-19T11:32:49.654Z,8.60
2023-04-19T11:35:20.800Z,8.20
2023-04-19T11:37:47.653Z,8.68
2023-04-19T11:40:18.785Z,7.47
2023-04-19T11:42:46.660Z,7.70
2023-04-19T11:45:31.709Z,7.80
2023-04-19T11:48:01.109Z,8.02
2023-04-19T11:50:42.078Z,8.32
2023-04-19T11:53:21.704Z,7.85
2023-04-19T11:56:06.444Z,8.15
2023-04-19T11:58:40.888Z,8.07
2023-04-19T12:01:09.875Z,8.23
2023-04-19T12:03:51.325Z,8.45
2023-04-19T12:06:26.897Z,8.02
2023-04-19T12:08:55.675Z,8.63
2023-04-19T12:11:26.464Z,9.30
2023-04-19T12:14:13.019Z,8.32
2023-04-19T12:16:39.997Z,8.93
2023-04-19T12:19:20.642Z,8.30
2023-04-19T12:21:48.011Z,8.10
2023-04-19T12:24:16.518Z,7.65
2023-04-19T12:26:57.040Z,7.53
2023-04-19T12:29:27.859Z,8.57
2023-04-19T12:31:55.119Z,7.68
2023-04-19T12:34:21.933Z,7.10
2023-04-19T12:36:48.912Z,7.53
2023-04-19T12:39:15.929Z,7.65
2023-04-19T12:41:42.929Z,8.57
2023-04-19T12:44:09.763Z,7.43
2023-04-19T12:46:37.026Z,7.50
2023-04-19T12:49:03.959Z,7.10
2023-04-19T12:51:31.776Z,7.60
2023-04-19T12:53:58.683Z,6.75
2023-04-19T12:56:26.129Z,6.35
2023-04-19T12:58:53.568Z,6.50
2023-04-19T13:01:20.662Z,6.47
2023-04-19T13:03:47.804Z,6.15
2023-04-19T13:06:16.904Z,7.38
2023-04-19T13:08:46.626Z,6.10
2023-04-19T13:11:15.723Z,6.45
2023-04-19T13:13:42.499Z,5.97
2023-04-19T13:16:09.297Z,6.07
2023-04-19T13:18:36.948Z,5.85
2023-04-19T13:21:06.622Z,6.15
2023-04-19T13:23:34.755Z,5.88
2023-04-19T13:26:01.508Z,7.13
2023-04-19T13:28:28.437Z,7.10
2023-04-19T13:30:55.448Z,7.93
2023-04-19T13:33:22.342Z,8.30
2023-04-19T13:35:49.173Z,9.05
2023-04-19T13:38:15.956Z,9.30
2023-04-19T13:40:44.276Z,9.75
2023-04-19T13:43:11.145Z,9.93
2023-04-19T13:45:38.117Z,10.48
2023-04-19T13:48:05.395Z,9.15
2023-04-19T13:50:32.337Z,8.52
2023-04-19T13:52:59.841Z,8.70
2023-04-19T13:55:27.420Z,10.65
2023-04-19T13:57:54.551Z,11.73
2023-04-19T14:00:21.673Z,11.10
2023-04-19T14:02:50.167Z,10.85
2023-04-19T14:05:19.114Z,10.85
2023-04-19T14:07:45.951Z,10.55
2023-04-19T14:10:12.765Z,11.38
2023-04-19T14:12:39.552Z,10.98
2023-04-19T14:15:07.131Z,11.02
2023-04-19T14:17:35.825Z,11.13
2023-04-19T14:20:05.663Z,10.55
2023-04-19T14:22:35.181Z,10.88
2023-04-19T14:25:02.848Z,10.85
2023-04-19T14:27:29.854Z,10.77
2023-04-19T14:29:56.836Z,11.18
2023-04-19T14:32:26.617Z,10.88
2023-04-19T14:34:55.836Z,11.07
2023-04-19T14:37:24.279Z,12.10
2023-04-19T14:39:51.781Z,10.93
2023-04-19T14:42:21.671Z,10.65
2023-04-19T14:44:51.376Z,12.30
2023-04-19T14:47:18.242Z,12.05
2023-04-19T14:49:45.417Z,11.98
2023-04-19T14:52:12.592Z,14.00
2023-04-19T14:54:39.518Z,13.23
2023-04-19T14:57:06.403Z,14.02
2023-04-19T14:59:34.199Z,13.27
2023-04-19T15:02:01.085Z,13.63
2023-04-19T15:04:28.177Z,14.82
2023-04-19T15:06:55.066Z,14.45
2023-04-19T15:09:21.966Z,14.25
2023-04-19T15:11:48.726Z,14.23
2023-04-19T15:14:15.660Z,14.90
2023-04-19T15:16:43.031Z,15.45
2023-04-19T15:19:09.803Z,15.05
2023-04-19T15:21:36.762Z,14.13
2023-04-19T15:24:04.594Z,15.32
2023-04-19T15:26:31.604Z,14.32
2023-04-19T15:28:58.434Z,13.85
2023-04-19T15:31:26.136Z,13.30
2023-04-19T15:33:53.489Z,11.95
2023-04-19T15:36:20.330Z,14.27
2023-04-19T15:38:47.112Z,11.55
2023-04-19T15:41:13.965Z,11.68
2023-04-19T15:43:40.845Z,11.60
2023-04-19T15:46:14.349Z,10.68
2023-04-19T15:48:42.320Z,11.13
2023-04-19T15:51:10.919Z,10.02
2023-04-19T15:53:37.798Z,9.18
2023-04-19T15:56:05.459Z,9.88
2023-04-19T15:58:32.331Z,9.70
2023-04-19T16:00:59.274Z,10.45
2023-04-19T16:03:26.188Z,11.15
2023-04-19T16:05:53.240Z,11.63
2023-04-19T16:08:20.009Z,11.32
2023-04-19T16:10:47.550Z,11.05
2023-04-19T16:13:15.707Z,11.27
2023-04-19T16:15:44.321Z,11.82
2023-04-19T16:18:13.203Z,12.88
2023-04-19T16:20:41.078Z,12.48
2023-04-19T16:23:08.118Z,13.60
2023-04-19T16:25:35.063Z,12.00
2023-04-19T16:28:01.902Z,13.48
2023-04-19T16:30:28.849Z,13.13
2023-04-19T16:32:56.425Z,12.73
2023-04-19T16:35:24.063Z,13.23
2023-04-19T16:37:50.994Z,12.50
2023-04-19T16:40:18.102Z,13.27
2023-04-19T16:42:44.888Z,13.43
2023-04-19T16:45:11.995Z,13.15
2023-04-19T16:47:39.032Z,11.95
2023-04-19T16:50:06.581Z,12.85
2023-04-19T16:52:35.602Z,12.73
2023-04-19T16:55:05.961Z,13.60
2023-04-19T16:57:32.947Z,14.77
2023-04-19T17:00:00.447Z,14.07
2023-04-19T17:02:27.547Z,14.43
2023-04-19T17:04:55.035Z,13.50
2023-04-19T17:07:21.863Z,11.80
2023-04-19T17:09:48.716Z,12.57
2023-04-19T17:12:15.460Z,10.90
2023-04-19T17:14:42.521Z,11.07
2023-04-19T17:17:09.314Z,12.13
2023-04-19T17:19:36.729Z,11.63
2023-04-19T17:22:05.621Z,11.75
2023-04-19T17:24:33.587Z,11.35
2023-04-19T17:27:01.001Z,12.18
2023-04-19T17:29:27.903Z,10.68
2023-04-19T17:31:56.200Z,11.00
2023-04-19T17:34:23.186Z,11.23
2023-04-19T17:36:50.239Z,12.13
2023-04-19T17:39:17.633Z,12.45
2023-04-19T17:41:44.934Z,12.38
2023-04-19T17:44:12.684Z,11.65
2023-04-19T17:46:40.420Z,11.88
2023-04-19T17:49:08.680Z,12.95
2023-04-19T17:51:35.464Z,12.32
2023-04-19T17:54:03.096Z,11.18
2023-04-19T17:56:30.098Z,11.15
2023-04-19T17:58:57.630Z,10.38
2023-04-19T18:01:24.560Z,11.32
2023-04-19T18:03:51.591Z,11.38
2023-04-19T18:06:20.739Z,11.80
2023-04-19T18:08:47.716Z,11.35
2023-04-19T18:11:18.061Z,12.55
2023-04-19T18:13:45.865Z,12.60
2023-04-19T18:16:13.675Z,12.23
2023-04-19T18:18:40.906Z,12.18
2023-04-19T18:21:09.215Z,12.10
2023-04-19T18:23:36.046Z,16.92
2023-04-19T18:26:03.946Z,12.02
2023-04-19T18:28:31.302Z,13.85
2023-04-19T18:30:58.145Z,12.50
2023-04-19T18:33:25.153Z,12.40
2023-04-19T18:35:53.975Z,13.02
2023-04-19T18:38:21.227Z,12.63
2023-04-19T18:40:48.600Z,14.13
2023-04-19T18:43:15.790Z,11.82
2023-04-19T18:45:42.707Z,11.90
2023-04-19T18:48:09.855Z,12.20
2023-04-19T18:50:38.240Z,10.82
2023-04-19T18:53:05.252Z,11.18
2023-04-19T18:55:32.312Z,35.85
2023-04-19T18:58:01.442Z,15.98
2023-04-19T19:00:28.433Z,11.40
2023-04-19T19:02:57.048Z,9.93
2023-04-19T19:05:24.296Z,10.13
2023-04-19T19:07:51.449Z,10.77
2023-04-19T19:10:21.883Z,13.40
2023-04-19T19:12:50.145Z,12.65
2023-04-19T19:15:17.216Z,11.80
2023-04-19T19:17:49.223Z,11.00
2023-04-19T19:20:17.439Z,11.15
2023-04-19T19:22:45.416Z,11.80
2023-04-19T19:25:13.144Z,11.35
2023-04-19T19:27:40.164Z,11.95
2023-04-19T19:30:07.941Z,11.90
2023-04-19T19:32:35.052Z,13.52
2023-04-19T19:35:06.365Z,12.95
2023-04-19T19:37:35.886Z,11.27
2023-04-19T19:40:06.329Z,11.18
2023-04-19T19:42:36.589Z,11.35
2023-04-19T19:45:07.080Z,12.27
2023-04-19T19:47:35.550Z,11.70
2023-04-19T19:52:36.992Z,11.98
2023-04-19T19:55:04.113Z,11.68
2023-04-19T20:02:53.976Z,11.75
2023-04-19T20:05:23.503Z,12.50
2023-04-19T20:10:21.275Z,13.68
2023-04-19T20:12:48.321Z,12.70
2023-04-19T20:15:15.396Z,13.48
2023-04-19T20:17:43.774Z,13.23
2023-04-19T20:20:11.361Z,13.63
2023-04-19T20:22:38.714Z,13.70
2023-04-19T20:25:06.624Z,13.60
2023-04-19T20:27:33.863Z,13.38
2023-04-19T20:30:01.028Z,14.45
2023-04-19T20:32:28.334Z,13.40
2023-04-19T20:34:55.555Z,13.88
2023-04-19T20:37:22.636Z,13.30
2023-04-19T20:39:49.498Z,14.50
2023-04-19T20:42:16.235Z,14.88
2023-04-19T20:44:43.095Z,14.90
2023-04-19T20:47:10.395Z,13.68
2023-04-19T20:49:37.313Z,14.55
2023-04-19T20:52:06.450Z,14.95
2023-04-19T20:54:34.190Z,14.80
2023-04-19T20:57:02.663Z,14.65
2023-04-19T20:59:29.621Z,15.10
2023-04-19T21:01:56.788Z,15.48
2023-04-19T21:04:23.771Z,15.55
2023-04-19T21:06:50.764Z,16.70
2023-04-19T21:09:18.192Z,15.93
2023-04-19T21:11:45.595Z,16.88
2023-04-19T21:14:13.164Z,17.73
2023-04-19T21:16:40.487Z,17.88
2023-04-19T21:19:07.569Z,17.50
2023-04-19T21:21:34.332Z,17.58
2023-04-19T21:24:01.311Z,19.00
2023-04-19T21:26:28.161Z,20.10
2023-04-19T21:28:55.346Z,20.50
2023-04-19T21:31:22.192Z,18.55
2023-04-19T21:33:49.260Z,20.58
2023-04-19T21:36:16.295Z,19.48
2023-04-19T21:38:43.558Z,20.08
2023-04-19T21:41:10.869Z,19.30
2023-04-19T21:43:37.729Z,22.25
2023-04-19T21:46:05.247Z,20.85
2023-04-19T21:48:32.265Z,21.60
2023-04-19T21:51:00.707Z,21.02
2023-04-19T21:53:27.643Z,21.67
2023-04-19T21:55:54.518Z,20.02
2023-04-19T21:58:22.225Z,20.98
2023-04-19T22:00:49.491Z,20.77
2023-04-19T22:03:16.540Z,21.30
2023-04-19T22:05:46.185Z,21.02
2023-04-19T22:08:13.903Z,21.30
2023-04-19T22:10:41.148Z,21.42
2023-04-19T22:13:08.751Z,21.42
2023-04-19T22:15:36.641Z,22.48
2023-04-19T22:18:04.591Z,22.13
2023-04-19T22:20:32.182Z,21.17
2023-04-19T22:22:59.425Z,22.85
2023-04-19T22:25:26.387Z,21.38
2023-04-19T22:27:53.326Z,21.35
2023-04-19T22:30:20.810Z,21.50
2023-04-19T22:32:48.497Z,20.20
2023-04-19T22:35:15.566Z,20.90
2023-04-19T22:37:42.456Z,20.48
2023-04-19T22:40:09.931Z,20.30
2023-04-19T22:42:37.214Z,20.70
2023-04-19T22:45:04.808Z,18.90
2023-04-19T22:47:33.037Z,18.02
2023-04-19T22:50:01.260Z,17.58
2023-04-19T22:52:28.009Z,16.83
2023-04-19T22:54:55.235Z,16.92
2023-04-19T22:57:22.056Z,15.63
2023-04-19T22:59:49.043Z,14.80
2023-04-19T23:02:15.985Z,14.65
2023-04-19T23:04:44.856Z,13.65
2023-04-19T23:07:11.907Z,13.93
2023-04-19T23:09:39.344Z,13.20
2023-04-19T23:12:08.158Z,12.55
2023-04-19T23:14:35.687Z,12.23
2023-04-19T23:17:02.845Z,11.80
2023-04-19T23:19:30.610Z,11.45
2023-04-19T23:21:57.497Z,11.00
2023-04-19T23:24:25.169Z,11.48
2023-04-19T23:26:52.156Z,9.85
2023-04-19T23:29:22.069Z,11.02
2023-04-19T23:31:48.909Z,9.93
2023-04-19T23:34:16.600Z,10.10
2023-04-19T23:36:43.670Z,9.70
2023-04-19T23:39:10.752Z,10.05
2023-04-19T23:41:37.632Z,10.38
2023-04-19T23:44:04.594Z,8.95
2023-04-19T23:46:31.603Z,8.90
2023-04-19T23:48:58.604Z,8.95
2023-04-19T23:51:25.396Z,8.70
2023-04-19T23:53:52.233Z,9.48
2023-04-19T23:56:19.449Z,9.20
2023-04-19T23:58:46.617Z,8.93
